Time;durP1;ratioP1;P1;durP2;ratioP2;P2;SDS_P1;SDS_P2;PMS_P1;PMS_P2;Temp;Humidity;BMP_temperature;BMP_pressure;BME280_temperature;BME280_humidity;BME280_pressure;Samples;Min_cycle;Max_cycle;Signal;HPM_P1;HPM_P2
2023/12/18 00:00:42;;;;;;;5.10;3.30;;;8.50;99.90;;;;;;4994480;28;20426;-72
2023/12/18 00:03:07;;;;;;;6.47;4.07;;;8.40;99.90;;;;;;4994223;28;20858;-72
2023/12/18 00:05:33;;;;;;;6.23;3.10;;;8.50;99.90;;;;;;4991333;28;20550;-73
2023/12/18 00:07:59;;;;;;;5.67;3.50;;;8.40;99.90;;;;;;4995955;28;20437;-72
2023/12/18 00:10:24;;;;;;;3.37;3.00;;;8.40;99.90;;;;;;4993464;28;20908;-72
2023/12/18 00:12:50;;;;;;;4.93;3.20;;;8.40;99.90;;;;;;4991188;28;20180;-72
2023/12/18 00:15:15;;;;;;;7.30;3.70;;;8.40;99.90;;;;;;4990578;28;20196;-72
2023/12/18 00:17:41;;;;;;;4.93;3.20;;;8.30;99.90;;;;;;4991799;28;20202;-72
2023/12/18 00:20:07;;;;;;;6.67;3.70;;;8.30;99.90;;;;;;4990827;28;20193;-72
2023/12/18 00:22:33;;;;;;;4.43;3.90;;;8.30;99.90;;;;;;4989837;28;20293;-72
2023/12/18 00:24:58;;;;;;;6.23;3.67;;;8.30;99.90;;;;;;4990721;28;20190;-72
2023/12/18 00:27:24;;;;;;;4.83;3.03;;;8.30;99.90;;;;;;4990296;28;20642;-72
2023/12/18 00:29:50;;;;;;;4.40;3.27;;;8.20;99.90;;;;;;4992217;28;20699;-72
2023/12/18 00:32:16;;;;;;;4.93;3.60;;;8.30;99.90;;;;;;4989281;28;20478;-72
2023/12/18 00:34:41;;;;;;;4.73;3.40;;;8.20;99.90;;;;;;4990470;28;20253;-72
2023/12/18 00:37:07;;;;;;;5.53;3.77;;;8.20;99.90;;;;;;4990405;28;20198;-72
2023/12/18 00:39:33;;;;;;;4.60;3.20;;;8.20;99.90;;;;;;4989788;28;20187;-72
2023/12/18 00:41:58;;;;;;;4.47;2.97;;;8.20;99.90;;;;;;4975083;28;20230;-72
2023/12/18 00:44:24;;;;;;;7.70;3.70;;;8.20;99.90;;;;;;4990613;28;20191;-72
2023/12/18 00:46:50;;;;;;;4.70;3.60;;;8.10;99.90;;;;;;4990707;28;20198;-72
2023/12/18 00:49:16;;;;;;;6.00;3.93;;;8.10;99.90;;;;;;4989935;28;20705;-72
2023/12/18 00:51:41;;;;;;;5.90;3.77;;;8.10;99.90;;;;;;4990438;28;20538;-72
2023/12/18 00:54:08;;;;;;;6.27;4.20;;;8.10;99.90;;;;;;4992796;28;20428;-72
2023/12/18 00:56:33;;;;;;;5.53;4.10;;;8.10;99.90;;;;;;4989037;28;20198;-72
2023/12/18 00:58:59;;;;;;;7.70;3.43;;;8.00;99.90;;;;;;4989426;28;20426;-72
2023/12/18 01:01:25;;;;;;;6.20;4.30;;;8.00;99.90;;;;;;4989649;28;20248;-72
2023/12/18 01:03:50;;;;;;;6.10;3.83;;;7.90;99.90;;;;;;4991570;28;20625;-72
2023/12/18 01:06:16;;;;;;;6.20;3.60;;;7.90;99.90;;;;;;4987990;28;20244;-72
2023/12/18 01:08:42;;;;;;;7.03;4.30;;;7.90;99.90;;;;;;4990267;28;20191;-72
2023/12/18 01:11:07;;;;;;;6.73;4.33;;;7.90;99.90;;;;;;4988637;28;20297;-72
2023/12/18 01:13:33;;;;;;;4.23;3.80;;;7.90;99.90;;;;;;4989101;28;20274;-72
2023/12/18 01:15:59;;;;;;;4.30;3.90;;;7.90;99.90;;;;;;4989613;28;20195;-72
2023/12/18 01:18:25;;;;;;;3.73;3.27;;;7.80;99.90;;;;;;4989755;28;20697;-72
2023/12/18 01:20:51;;;;;;;4.27;3.60;;;7.80;99.90;;;;;;4989270;28;20430;-72
2023/12/18 01:23:16;;;;;;;6.87;3.60;;;7.80;99.90;;;;;;4990713;28;20219;-72
2023/12/18 01:25:42;;;;;;;5.97;3.57;;;7.80;99.90;;;;;;4989258;28;20188;-72
2023/12/18 01:28:08;;;;;;;5.40;4.13;;;7.70;99.90;;;;;;4988859;28;20245;-72
2023/12/18 01:30:34;;;;;;;5.67;4.00;;;7.70;99.90;;;;;;4990298;28;20237;-72
2023/12/18 01:32:59;;;;;;;6.53;4.07;;;7.70;99.90;;;;;;4992914;28;20209;-72
2023/12/18 01:35:25;;;;;;;6.03;4.00;;;7.70;99.90;;;;;;4994490;28;20661;-72
2023/12/18 01:37:51;;;;;;;5.80;4.10;;;7.70;99.90;;;;;;4993669;28;20182;-72
2023/12/18 01:40:16;;;;;;;7.80;4.10;;;7.60;99.90;;;;;;4993197;28;20202;-72
2023/12/18 01:42:45;;;;;;;4.63;3.73;;;7.60;99.90;;;;;;4994535;28;20219;-72
2023/12/18 01:45:11;;;;;;;7.43;4.30;;;7.60;99.90;;;;;;4992907;28;20610;-73
2023/12/18 01:47:37;;;;;;;5.37;4.00;;;7.60;99.90;;;;;;4994508;28;20446;-72
2023/12/18 01:50:05;;;;;;;6.57;4.63;;;7.60;99.90;;;;;;4993671;28;20283;-72
2023/12/18 01:52:31;;;;;;;4.30;3.60;;;7.50;99.90;;;;;;4994357;28;20460;-72
2023/12/18 01:54:57;;;;;;;7.47;4.30;;;7.60;99.90;;;;;;4995135;28;20431;-72
2023/12/18 01:57:23;;;;;;;7.73;4.40;;;7.60;99.90;;;;;;4995165;28;21826;-73
2023/12/18 01:59:50;;;;;;;6.87;4.80;;;7.60;99.90;;;;;;4991447;28;20464;-72
2023/12/18 02:02:16;;;;;;;5.10;4.30;;;7.60;99.90;;;;;;4993270;28;20221;-72
2023/12/18 02:04:43;;;;;;;6.80;4.30;;;7.50;99.90;;;;;;4993275;28;20446;-72
2023/12/18 02:07:09;;;;;;;4.07;3.67;;;7.50;99.90;;;;;;4992229;28;20519;-72
2023/12/18 02:09:35;;;;;;;6.03;4.03;;;7.50;99.90;;;;;;4994850;28;20432;-72
2023/12/18 02:12:02;;;;;;;11.27;4.50;;;7.50;99.90;;;;;;4992851;28;20927;-72
2023/12/18 02:14:27;;;;;;;9.93;4.27;;;7.60;99.90;;;;;;4993675;28;20188;-73
2023/12/18 02:16:53;;;;;;;4.87;4.10;;;7.60;99.90;;;;;;4993178;28;20509;-73
2023/12/18 02:19:29;;;;;;;6.13;4.53;;;7.60;99.90;;;;;;4978631;28;20192;-72
2023/12/18 02:21:56;;;;;;;5.73;4.10;;;7.60;99.90;;;;;;4992179;28;20183;-72
2023/12/18 02:24:22;;;;;;;5.83;4.13;;;7.50;99.90;;;;;;4994007;28;20466;-72
2023/12/18 02:26:48;;;;;;;5.83;4.37;;;7.50;99.90;;;;;;4993459;28;21085;-72
2023/12/18 02:29:14;;;;;;;6.03;4.60;;;7.50;99.90;;;;;;4993355;28;20454;-72
2023/12/18 02:31:40;;;;;;;6.47;4.53;;;7.50;99.90;;;;;;4995062;28;20454;-72
2023/12/18 02:34:06;;;;;;;7.23;4.60;;;7.50;99.90;;;;;;4993016;28;20496;-72
2023/12/18 02:36:32;;;;;;;8.73;4.97;;;7.50;99.90;;;;;;4993435;28;20434;-72
2023/12/18 02:38:57;;;;;;;6.70;4.93;;;7.50;99.90;;;;;;4992603;28;20434;-72
2023/12/18 02:41:23;;;;;;;8.87;5.60;;;7.50;99.90;;;;;;4995141;28;20583;-72
2023/12/18 02:43:49;;;;;;;9.53;5.80;;;7.50;99.90;;;;;;4993177;28;20276;-72
2023/12/18 02:46:14;;;;;;;9.20;5.87;;;7.40;99.90;;;;;;4993570;28;20191;-71
2023/12/18 02:48:40;;;;;;;8.30;5.50;;;7.40;99.90;;;;;;4994995;28;20191;-71
2023/12/18 02:51:06;;;;;;;8.77;4.97;;;7.40;99.90;;;;;;4993018;28;20212;-72
2023/12/18 02:53:32;;;;;;;9.23;5.80;;;7.40;99.90;;;;;;4995490;28;20430;-71
2023/12/18 02:55:57;;;;;;;7.27;5.37;;;7.30;99.90;;;;;;4995271;28;20236;-72
2023/12/18 02:58:23;;;;;;;7.50;5.40;;;7.30;99.90;;;;;;4995065;28;20266;-72
2023/12/18 03:00:49;;;;;;;7.77;5.53;;;7.30;99.90;;;;;;4992325;28;20270;-71
2023/12/18 03:03:15;;;;;;;11.63;5.80;;;7.30;99.90;;;;;;4992650;28;20459;-72
2023/12/18 03:05:41;;;;;;;8.40;6.00;;;7.30;99.90;;;;;;4995083;28;20415;-72
2023/12/18 03:08:07;;;;;;;7.87;5.60;;;7.30;99.90;;;;;;4992864;28;20578;-71
2023/12/18 03:10:33;;;;;;;8.50;6.10;;;7.30;99.90;;;;;;4980161;28;20473;-72
2023/12/18 03:12:59;;;;;;;16.37;7.40;;;7.30;99.90;;;;;;4993002;28;20188;-72
2023/12/18 03:15:24;;;;;;;8.43;6.63;;;7.20;99.90;;;;;;4996130;28;20217;-72
2023/12/18 03:17:50;;;;;;;9.67;6.40;;;7.20;99.90;;;;;;4996417;28;20756;-72
2023/12/18 03:20:16;;;;;;;9.27;6.00;;;7.20;99.90;;;;;;4996557;28;20248;-72
2023/12/18 03:22:41;;;;;;;10.83;6.67;;;7.10;99.90;;;;;;4999301;28;20226;-72
2023/12/18 03:25:07;;;;;;;9.17;6.77;;;7.10;99.90;;;;;;4995453;28;20191;-71
2023/12/18 03:27:33;;;;;;;10.80;7.07;;;7.10;99.90;;;;;;4999358;28;20220;-71
2023/12/18 03:29:59;;;;;;;10.13;6.77;;;7.10;99.90;;;;;;4995677;28;20430;-71
2023/12/18 03:32:25;;;;;;;9.50;7.00;;;7.10;99.90;;;;;;4983575;28;20488;-71
2023/12/18 03:34:51;;;;;;;10.80;6.80;;;7.00;99.90;;;;;;4997320;28;20188;-71
2023/12/18 03:37:16;;;;;;;13.80;7.17;;;7.00;99.90;;;;;;4998153;28;20491;-73
2023/12/18 03:39:42;;;;;;;11.40;7.60;;;7.00;99.90;;;;;;4999896;28;20709;-71
2023/12/18 03:42:08;;;;;;;10.57;7.73;;;6.90;99.90;;;;;;4995320;28;20287;-71
2023/12/18 03:44:33;;;;;;;10.50;7.60;;;6.90;99.90;;;;;;4998986;28;20187;-72
2023/12/18 03:46:59;;;;;;;8.20;6.70;;;6.90;99.90;;;;;;4997346;28;20279;-71
2023/12/18 03:49:25;;;;;;;12.03;7.33;;;6.90;99.90;;;;;;4999101;28;20256;-71
2023/12/18 03:51:51;;;;;;;11.67;7.93;;;6.90;99.90;;;;;;4997157;28;20715;-73
2023/12/18 03:54:17;;;;;;;13.27;8.20;;;6.90;99.90;;;;;;4998422;28;20295;-73
2023/12/18 03:56:43;;;;;;;15.70;8.83;;;6.90;99.90;;;;;;4999236;28;20522;-73
2023/12/18 03:59:08;;;;;;;11.77;8.60;;;6.90;99.90;;;;;;4997791;28;20199;-72
2023/12/18 04:01:35;;;;;;;15.63;9.17;;;6.80;99.90;;;;;;5000430;28;20190;-72
2023/12/18 04:04:02;;;;;;;11.90;8.30;;;6.80;99.90;;;;;;4995254;28;20943;-72
2023/12/18 04:06:28;;;;;;;10.67;8.07;;;6.80;99.90;;;;;;5000120;28;20430;-72
2023/12/18 04:08:53;;;;;;;9.97;7.67;;;6.80;99.90;;;;;;4994399;28;20439;-72
2023/12/18 04:11:21;;;;;;;9.23;7.73;;;6.80;99.90;;;;;;4980921;28;20443;-72
2023/12/18 04:13:47;;;;;;;12.70;7.73;;;6.80;99.90;;;;;;4999388;28;20175;-72
2023/12/18 04:16:13;;;;;;;15.60;7.60;;;6.80;99.90;;;;;;4998200;28;20447;-72
2023/12/18 04:18:39;;;;;;;10.33;7.37;;;6.70;99.90;;;;;;5002545;28;20964;-72
2023/12/18 04:21:04;;;;;;;9.90;7.37;;;6.80;99.90;;;;;;4998886;28;20242;-72
2023/12/18 04:23:30;;;;;;;10.20;7.50;;;6.70;99.90;;;;;;4998881;28;20268;-72
2023/12/18 04:25:56;;;;;;;10.00;7.43;;;6.70;99.90;;;;;;4998664;28;20253;-72
2023/12/18 04:28:21;;;;;;;15.23;7.20;;;6.70;99.90;;;;;;4997902;28;20192;-72
2023/12/18 04:30:47;;;;;;;12.30;8.30;;;6.70;99.90;;;;;;4998775;28;20243;-72
2023/12/18 04:33:12;;;;;;;10.07;6.73;;;6.70;99.90;;;;;;4997965;28;20959;-72
2023/12/18 04:35:38;;;;;;;8.90;6.50;;;6.70;99.90;;;;;;4998644;28;20957;-72
2023/12/18 04:38:04;;;;;;;10.03;7.10;;;6.70;99.90;;;;;;4997026;28;20558;-72
2023/12/18 04:40:29;;;;;;;15.90;7.63;;;6.70;99.90;;;;;;5000700;28;20575;-72
2023/12/18 04:42:55;;;;;;;9.50;6.93;;;6.70;99.90;;;;;;4995908;28;20971;-72
2023/12/18 04:45:21;;;;;;;11.00;7.50;;;6.70;99.90;;;;;;4995529;28;20673;-72
2023/12/18 04:47:46;;;;;;;11.00;6.40;;;6.70;99.90;;;;;;4996459;28;20190;-72
2023/12/18 04:50:13;;;;;;;8.57;6.43;;;6.70;99.90;;;;;;4997742;28;20191;-72
2023/12/18 04:52:39;;;;;;;9.00;6.57;;;6.70;99.90;;;;;;4999623;28;20286;-72
2023/12/18 04:55:05;;;;;;;10.43;7.30;;;6.70;99.90;;;;;;4996926;28;21064;-72
2023/12/18 04:57:31;;;;;;;12.43;7.33;;;6.70;99.90;;;;;;4999202;28;20921;-72
2023/12/18 04:59:57;;;;;;;9.80;7.50;;;6.70;99.90;;;;;;4996528;28;20450;-72
2023/12/18 05:02:23;;;;;;;8.77;7.03;;;6.70;99.90;;;;;;4998686;28;20625;-72
2023/12/18 05:04:49;;;;;;;10.00;7.00;;;6.70;99.90;;;;;;4994653;28;20426;-72
2023/12/18 05:07:14;;;;;;;12.10;6.70;;;6.70;99.90;;;;;;4996073;28;20198;-71
2023/12/18 05:09:40;;;;;;;8.23;6.70;;;6.70;99.90;;;;;;4996652;28;20215;-72
2023/12/18 05:12:06;;;;;;;10.33;7.00;;;6.70;99.90;;;;;;4995865;28;21007;-72
2023/12/18 05:14:32;;;;;;;9.23;7.57;;;6.70;99.90;;;;;;4998379;28;20288;-72
2023/12/18 05:16:58;;;;;;;11.33;6.80;;;6.70;99.90;;;;;;4995930;28;21042;-72
2023/12/18 05:19:23;;;;;;;8.60;7.27;;;6.70;99.90;;;;;;4998852;28;20188;-72
2023/12/18 05:21:49;;;;;;;11.70;7.40;;;6.70;99.90;;;;;;4994249;28;20278;-72
2023/12/18 05:24:15;;;;;;;12.93;8.83;;;6.70;99.90;;;;;;4997250;28;20204;-73
2023/12/18 05:26:41;;;;;;;13.03;8.73;;;6.70;99.90;;;;;;4995931;28;20198;-73
2023/12/18 05:29:06;;;;;;;10.07;7.87;;;6.60;99.90;;;;;;4997146;28;20190;-73
2023/12/18 05:31:32;;;;;;;13.83;8.40;;;6.60;99.90;;;;;;4999932;28;20202;-72
2023/12/18 05:33:58;;;;;;;13.10;8.17;;;6.60;99.90;;;;;;4996465;28;20240;-72
2023/12/18 05:36:24;;;;;;;12.37;9.30;;;6.60;99.90;;;;;;4998840;28;20202;-72
2023/12/18 05:38:50;;;;;;;13.70;8.80;;;6.60;99.90;;;;;;4996607;28;20776;-72
2023/12/18 05:41:15;;;;;;;14.33;7.93;;;6.60;99.90;;;;;;4993061;28;21008;-72
2023/12/18 05:43:41;;;;;;;16.37;8.80;;;6.60;99.90;;;;;;4984892;28;20212;-72
2023/12/18 05:46:11;;;;;;;13.90;9.30;;;6.60;99.90;;;;;;4987185;28;20213;-72
2023/12/18 05:48:37;;;;;;;12.27;8.27;;;6.60;99.90;;;;;;4990053;28;20183;-72
2023/12/18 05:51:02;;;;;;;14.27;8.70;;;6.60;99.90;;;;;;4988655;28;20450;-72
2023/12/18 05:53:28;;;;;;;13.73;10.27;;;6.60;99.90;;;;;;4989913;28;20227;-72
2023/12/18 05:55:54;;;;;;;16.20;9.43;;;6.60;99.90;;;;;;4990773;28;20204;-72
2023/12/18 05:58:20;;;;;;;18.80;9.40;;;6.60;99.90;;;;;;4997994;28;20738;-72
2023/12/18 06:00:45;;;;;;;15.93;11.23;;;6.60;99.90;;;;;;4998928;28;20641;-72
2023/12/18 06:03:11;;;;;;;13.93;10.60;;;6.60;99.90;;;;;;5090569;27;20211;-72
2023/12/18 06:05:37;;;;;;;17.13;10.40;;;6.50;99.90;;;;;;4998873;28;20599;-72
2023/12/18 06:08:03;;;;;;;12.00;9.07;;;6.60;99.90;;;;;;4994761;28;20196;-72
2023/12/18 06:10:29;;;;;;;15.10;9.57;;;6.50;99.90;;;;;;4992554;28;20195;-72
2023/12/18 06:12:54;;;;;;;14.90;10.00;;;6.50;99.90;;;;;;4991351;28;20493;-72
2023/12/18 06:15:20;;;;;;;13.60;10.33;;;6.50;99.90;;;;;;4992308;28;20189;-72
2023/12/18 06:17:46;;;;;;;16.00;10.30;;;6.50;99.90;;;;;;4991346;28;20199;-72
2023/12/18 06:20:11;;;;;;;15.90;9.97;;;6.40;99.90;;;;;;4991309;28;20234;-72
2023/12/18 06:22:37;;;;;;;14.30;10.13;;;6.40;99.90;;;;;;4993989;28;20219;-72
2023/12/18 06:25:03;;;;;;;17.00;11.93;;;6.40;99.90;;;;;;4990943;28;20274;-72
2023/12/18 06:27:29;;;;;;;15.73;11.00;;;6.40;99.90;;;;;;4993019;28;20214;-72
2023/12/18 06:29:54;;;;;;;17.43;10.80;;;6.40;99.90;;;;;;4990933;28;20793;-72
2023/12/18 06:32:20;;;;;;;15.17;11.13;;;6.40;99.90;;;;;;4992690;28;20195;-72
2023/12/18 06:34:46;;;;;;;18.67;12.23;;;6.30;99.90;;;;;;4990064;28;20276;-72
2023/12/18 06:37:12;;;;;;;19.70;10.63;;;6.30;99.90;;;;;;4991318;28;20191;-72
2023/12/18 06:39:37;;;;;;;14.60;11.40;;;6.30;99.90;;;;;;4991975;28;20248;-72
2023/12/18 06:42:03;;;;;;;16.77;12.10;;;6.30;99.90;;;;;;4990050;28;20188;-72
2023/12/18 06:44:29;;;;;;;15.53;11.37;;;6.30;99.90;;;;;;4993693;28;20210;-72
2023/12/18 06:46:56;;;;;;;16.80;12.47;;;6.30;99.90;;;;;;4989993;28;21150;-72
2023/12/18 06:49:21;;;;;;;20.67;11.67;;;6.20;99.90;;;;;;4987080;28;20497;-72
2023/12/18 06:51:49;;;;;;;18.90;11.50;;;6.30;99.90;;;;;;4988309;28;20858;-72
2023/12/18 06:54:16;;;;;;;17.07;11.83;;;6.30;99.90;;;;;;4990962;28;20191;-72
2023/12/18 06:56:42;;;;;;;16.00;11.67;;;6.20;99.90;;;;;;4992042;28;21156;-72
2023/12/18 06:59:07;;;;;;;15.87;11.80;;;6.20;99.90;;;;;;4992994;28;20439;-72
2023/12/18 07:01:33;;;;;;;15.23;11.33;;;6.20;99.90;;;;;;4992522;28;20670;-72
2023/12/18 07:03:59;;;;;;;16.60;10.57;;;6.30;99.90;;;;;;4992586;28;20227;-72
2023/12/18 07:06:25;;;;;;;13.53;11.10;;;6.20;99.90;;;;;;4990308;28;20443;-72
2023/12/18 07:08:50;;;;;;;15.77;11.13;;;6.20;99.90;;;;;;4992322;28;20442;-72
2023/12/18 07:11:16;;;;;;;16.60;11.97;;;6.30;99.90;;;;;;4990236;28;21196;-72
2023/12/18 07:13:42;;;;;;;16.70;12.17;;;6.20;99.90;;;;;;4973518;28;20191;-71
2023/12/18 07:16:08;;;;;;;16.87;11.77;;;6.20;99.90;;;;;;4992649;28;20195;-72
2023/12/18 07:18:33;;;;;;;19.67;12.50;;;6.20;99.90;;;;;;4994810;28;20387;-72
2023/12/18 07:20:59;;;;;;;16.77;10.87;;;6.20;99.90;;;;;;4994577;28;20234;-75
2023/12/18 07:23:25;;;;;;;16.20;11.33;;;6.20;99.90;;;;;;4995736;28;20207;-72
2023/12/18 07:25:51;;;;;;;18.47;12.40;;;6.20;99.90;;;;;;4993949;28;20190;-73
2023/12/18 07:28:17;;;;;;;15.80;11.97;;;6.20;99.90;;;;;;4995817;28;20493;-74
2023/12/18 07:30:42;;;;;;;16.50;12.37;;;6.10;99.90;;;;;;4994474;28;20426;-73
2023/12/18 07:33:08;;;;;;;17.07;11.93;;;6.10;99.90;;;;;;4994515;28;20242;-73
2023/12/18 07:35:34;;;;;;;19.13;12.73;;;6.10;99.90;;;;;;4995658;28;20210;-73
2023/12/18 07:37:59;;;;;;;22.10;12.63;;;6.20;99.90;;;;;;4995446;28;20231;-74
2023/12/18 07:40:25;;;;;;;15.83;12.27;;;6.10;99.90;;;;;;4996402;28;20200;-73
2023/12/18 07:42:51;;;;;;;16.80;11.10;;;6.10;99.90;;;;;;4992690;28;20263;-72
2023/12/18 07:45:18;;;;;;;19.67;12.00;;;6.10;99.90;;;;;;4993969;28;20209;-71
2023/12/18 07:47:44;;;;;;;15.67;11.80;;;6.10;99.90;;;;;;4987140;28;20243;-73
2023/12/18 07:50:11;;;;;;;16.30;10.40;;;6.10;99.90;;;;;;4990567;28;20451;-75
2023/12/18 07:52:37;;;;;;;17.00;10.13;;;6.10;99.90;;;;;;4995061;28;20554;-74
2023/12/18 07:55:03;;;;;;;15.57;11.20;;;6.20;99.90;;;;;;4994118;28;21215;-73
2023/12/18 07:57:28;;;;;;;15.53;10.00;;;6.20;99.90;;;;;;4997871;28;20198;-74
2023/12/18 07:59:54;;;;;;;12.63;9.40;;;6.10;99.90;;;;;;4993248;28;20841;-71
2023/12/18 08:02:20;;;;;;;17.17;10.60;;;6.10;99.90;;;;;;4994010;28;20248;-74
2023/12/18 08:04:46;;;;;;;17.83;10.43;;;6.10;99.90;;;;;;4993745;28;22204;-74
2023/12/18 08:07:11;;;;;;;14.70;10.47;;;6.20;99.90;;;;;;4993544;28;20222;-73
2023/12/18 08:09:37;;;;;;;13.97;10.17;;;6.20;99.90;;;;;;4995337;28;20199;-72
2023/12/18 08:12:03;;;;;;;15.57;11.20;;;6.20;99.90;;;;;;4993379;28;20216;-73
2023/12/18 08:14:29;;;;;;;15.57;10.83;;;6.20;99.90;;;;;;4996040;28;20578;-71
2023/12/18 08:16:55;;;;;;;20.27;11.50;;;6.20;99.90;;;;;;4993856;28;20442;-74
2023/12/18 08:19:20;;;;;;;14.10;10.27;;;6.20;99.90;;;;;;4994879;28;20187;-70
2023/12/18 08:21:46;;;;;;;14.37;10.10;;;6.20;99.90;;;;;;4995807;28;22331;-70
2023/12/18 08:24:11;;;;;;;13.37;9.57;;;6.20;99.90;;;;;;4995207;28;20563;-74
2023/12/18 08:26:37;;;;;;;12.30;9.63;;;6.20;99.90;;;;;;4995396;28;20237;-72
2023/12/18 08:29:04;;;;;;;14.67;11.03;;;6.30;99.90;;;;;;4994561;28;20188;-72
2023/12/18 08:31:30;;;;;;;14.70;10.77;;;6.30;99.90;;;;;;4994452;28;20199;-71
2023/12/18 08:33:56;;;;;;;14.30;10.50;;;6.30;99.90;;;;;;4994803;28;20442;-75
2023/12/18 08:36:22;;;;;;;13.47;10.00;;;6.30;99.90;;;;;;4995488;28;20430;-73
2023/12/18 08:38:47;;;;;;;13.77;9.40;;;6.30;99.90;;;;;;4993913;28;20187;-72
2023/12/18 08:41:13;;;;;;;14.87;10.00;;;6.30;99.90;;;;;;4994637;28;21080;-71
2023/12/18 08:43:39;;;;;;;15.17;9.90;;;6.30;99.90;;;;;;4993813;28;20227;-73
2023/12/18 08:46:05;;;;;;;13.37;9.97;;;6.30;99.90;;;;;;4994021;28;20191;-72
2023/12/18 08:48:31;;;;;;;14.60;10.70;;;6.30;99.90;;;;;;4993159;28;20433;-73
2023/12/18 08:50:57;;;;;;;13.60;9.93;;;6.30;99.90;;;;;;4993296;28;21184;-73
2023/12/18 08:53:22;;;;;;;14.70;10.40;;;6.30;99.90;;;;;;4993994;28;20816;-72
2023/12/18 08:55:48;;;;;;;15.27;10.70;;;6.30;99.90;;;;;;4995872;28;20233;-72
2023/12/18 08:58:14;;;;;;;15.50;10.80;;;6.30;99.90;;;;;;4993229;28;20253;-74
2023/12/18 09:00:40;;;;;;;13.57;10.83;;;6.30;99.90;;;;;;4995182;28;20641;-73
2023/12/18 09:03:06;;;;;;;19.70;11.20;;;6.30;99.90;;;;;;4994847;28;20482;-72
2023/12/18 09:05:31;;;;;;;16.27;10.93;;;6.40;99.90;;;;;;4995991;28;20241;-71
2023/12/18 09:07:57;;;;;;;17.50;11.07;;;6.30;99.90;;;;;;4994810;28;20580;-74
2023/12/18 09:10:24;;;;;;;15.07;11.30;;;6.30;99.90;;;;;;4996159;28;20480;-72
2023/12/18 09:12:52;;;;;;;13.37;10.20;;;6.30;99.90;;;;;;4993754;28;20430;-75
2023/12/18 09:15:18;;;;;;;19.83;11.30;;;6.30;99.90;;;;;;4994708;28;20435;-72
2023/12/18 09:17:44;;;;;;;14.83;11.17;;;6.30;99.90;;;;;;4996129;28;20521;-74
2023/12/18 09:20:10;;;;;;;14.67;10.70;;;6.40;99.90;;;;;;4995385;28;20848;-74
2023/12/18 09:22:36;;;;;;;12.10;9.70;;;6.40;99.90;;;;;;4996186;28;20227;-72
2023/12/18 09:25:03;;;;;;;16.67;11.00;;;6.40;99.90;;;;;;4994898;28;20491;-73
2023/12/18 09:27:28;;;;;;;14.10;11.43;;;6.40;99.90;;;;;;4995017;28;20499;-73
2023/12/18 09:29:54;;;;;;;14.93;9.93;;;6.30;99.90;;;;;;4995133;28;20431;-70
2023/12/18 09:32:20;;;;;;;16.33;10.00;;;6.40;99.90;;;;;;4993790;28;20583;-71
2023/12/18 09:34:46;;;;;;;18.80;12.67;;;6.40;99.90;;;;;;4993948;28;20487;-74
2023/12/18 09:37:12;;;;;;;16.50;10.97;;;6.40;99.90;;;;;;4994944;28;20194;-75
2023/12/18 09:39:40;;;;;;;14.07;10.20;;;6.40;99.90;;;;;;4996127;28;20191;-73
2023/12/18 09:42:09;;;;;;;12.57;9.23;;;6.40;99.90;;;;;;4994760;28;20187;-73
2023/12/18 09:44:35;;;;;;;14.73;9.90;;;6.40;99.90;;;;;;4996014;28;20435;-71
2023/12/18 09:47:01;;;;;;;11.83;9.77;;;6.50;99.90;;;;;;4993200;28;20927;-74
2023/12/18 09:49:27;;;;;;;15.97;10.97;;;6.50;99.90;;;;;;4996253;28;20431;-73
2023/12/18 09:51:54;;;;;;;12.93;8.87;;;6.50;99.90;;;;;;4994849;28;20425;-74
2023/12/18 09:54:24;;;;;;;14.13;10.00;;;6.50;99.90;;;;;;4996600;28;20418;-73
2023/12/18 09:56:51;;;;;;;15.37;9.77;;;6.60;99.90;;;;;;4994522;28;20431;-74
2023/12/18 09:59:17;;;;;;;13.23;9.77;;;6.60;99.90;;;;;;4994742;28;20467;-72
2023/12/18 10:01:44;;;;;;;15.17;10.23;;;6.50;99.90;;;;;;4996733;28;20543;-74
2023/12/18 10:04:10;;;;;;;11.53;9.40;;;6.60;99.90;;;;;;4994330;28;20466;-71
2023/12/18 10:06:36;;;;;;;13.03;9.67;;;6.60;99.90;;;;;;4996160;28;20960;-71
2023/12/18 10:09:06;;;;;;;12.80;9.77;;;6.60;99.90;;;;;;4995027;28;20266;-74
2023/12/18 10:11:31;;;;;;;16.87;10.30;;;6.60;99.90;;;;;;4995668;28;20480;-74
2023/12/18 10:13:58;;;;;;;19.60;10.80;;;6.60;99.90;;;;;;4995137;28;20983;-73
2023/12/18 10:16:24;;;;;;;13.30;9.70;;;6.70;99.90;;;;;;4995674;28;20187;-72
2023/12/18 10:18:51;;;;;;;14.53;11.17;;;6.60;99.90;;;;;;4994819;28;20598;-71
2023/12/18 10:21:24;;;;;;;14.47;10.87;;;6.60;99.90;;;;;;4994482;28;20491;-74
2023/12/18 10:23:52;;;;;;;15.30;11.03;;;6.60;99.90;;;;;;4994805;28;20884;-73
2023/12/18 10:26:18;;;;;;;14.50;11.20;;;6.60;99.90;;;;;;4996620;28;20446;-73
2023/12/18 10:28:44;;;;;;;14.53;9.97;;;6.60;99.90;;;;;;5001098;28;20423;-74
2023/12/18 10:31:10;;;;;;;15.43;10.83;;;6.60;99.90;;;;;;4998187;28;20832;-74
2023/12/18 10:33:37;;;;;;;14.30;10.53;;;6.60;99.90;;;;;;4999619;28;20467;-71
2023/12/18 10:36:06;;;;;;;12.93;9.80;;;6.60;99.90;;;;;;4998857;28;20426;-72
2023/12/18 10:38:36;;;;;;;12.30;10.50;;;6.60;99.90;;;;;;4999480;28;20426;-74
2023/12/18 10:41:03;;;;;;;12.67;9.80;;;6.70;99.90;;;;;;4997701;28;20426;-75
2023/12/18 10:43:33;;;;;;;15.03;9.40;;;6.70;99.90;;;;;;4999150;28;20470;-72
2023/12/18 10:46:02;;;;;;;15.37;9.27;;;6.60;99.90;;;;;;4998533;28;20447;-74
2023/12/18 10:48:29;;;;;;;12.10;9.50;;;6.60;99.90;;;;;;4999916;28;20964;-73
2023/12/18 10:50:56;;;;;;;14.90;10.27;;;6.50;99.90;;;;;;4997928;28;20462;-73
2023/12/18 10:53:23;;;;;;;13.77;9.90;;;6.50;99.90;;;;;;4998149;28;20434;-74
2023/12/18 10:55:50;;;;;;;11.60;9.33;;;6.50;99.90;;;;;;4997234;28;20517;-70
2023/12/18 10:58:20;;;;;;;11.83;10.23;;;6.50;99.90;;;;;;4989737;28;20457;-74
2023/12/18 11:00:46;;;;;;;12.83;9.27;;;6.60;99.90;;;;;;5004960;28;20503;-75
2023/12/18 11:03:13;;;;;;;14.20;10.50;;;6.60;99.90;;;;;;4991364;28;21055;-73
2023/12/18 11:05:40;;;;;;;10.30;8.87;;;6.60;99.90;;;;;;4989303;28;20431;-74
2023/12/18 11:08:06;;;;;;;14.30;9.50;;;6.60;99.90;;;;;;4991935;28;20532;-71
2023/12/18 11:10:32;;;;;;;13.70;10.27;;;6.60;99.90;;;;;;4990112;28;20430;-71
2023/12/18 11:13:26;;;;;;;12.60;9.43;;;6.60;99.90;;;;;;4991462;28;21114;-74
2023/12/18 11:16:25;;;;;;;12.20;9.50;;;6.70;99.90;;;;;;4990655;28;20431;-73
2023/12/18 11:19:35;;;;;;;11.93;9.10;;;6.70;99.90;;;;;;4991004;28;20492;-75
2023/12/18 11:22:04;;;;;;;13.73;10.10;;;6.70;99.90;;;;;;4991492;28;20441;-71
2023/12/18 11:24:39;;;;;;;11.90;9.70;;;6.70;99.90;;;;;;4988886;28;20850;-72
2023/12/18 11:27:06;;;;;;;13.73;10.77;;;6.70;99.90;;;;;;4991459;28;20430;-71
2023/12/18 11:29:39;;;;;;;13.23;9.70;;;6.70;99.90;;;;;;4989650;28;20438;-73
2023/12/18 11:32:06;;;;;;;14.30;10.47;;;6.70;99.90;;;;;;4989434;28;20454;-72
2023/12/18 11:34:32;;;;;;;10.90;9.20;;;6.70;99.90;;;;;;4987148;28;20783;-72
2023/12/18 11:37:00;;;;;;;12.60;9.97;;;6.70;99.90;;;;;;4988125;28;20427;-74
2023/12/18 11:39:39;;;;;;;12.00;10.10;;;6.70;99.90;;;;;;4989143;28;20520;-73
2023/12/18 11:42:07;;;;;;;11.87;9.77;;;6.70;99.90;;;;;;5006801;28;20437;-75
2023/12/18 11:44:35;;;;;;;14.00;9.53;;;6.70;99.90;;;;;;4992680;28;20426;-74
2023/12/18 11:47:01;;;;;;;11.47;9.70;;;6.70;99.90;;;;;;4987990;28;20450;-73
2023/12/18 11:49:27;;;;;;;14.10;10.37;;;6.70;99.90;;;;;;4992412;28;20961;-72
2023/12/18 11:51:52;;;;;;;14.37;10.50;;;6.70;99.90;;;;;;4999359;28;20187;-72
2023/12/18 11:54:24;;;;;;;12.80;10.13;;;6.70;99.90;;;;;;5000628;28;20192;-74
2023/12/18 11:56:51;;;;;;;12.77;9.93;;;6.70;99.90;;;;;;4998422;28;20269;-75
2023/12/18 11:59:21;;;;;;;12.87;9.70;;;6.70;99.90;;;;;;4996460;28;20443;-72
2023/12/18 12:01:50;;;;;;;14.70;9.20;;;6.70;99.90;;;;;;4998377;28;20487;-72
2023/12/18 12:04:16;;;;;;;12.17;9.40;;;6.80;99.90;;;;;;4997922;28;20466;-71
2023/12/18 12:06:42;;;;;;;13.53;9.43;;;6.80;99.90;;;;;;5001594;28;20430;-73
2023/12/18 12:09:09;;;;;;;12.40;9.60;;;6.80;99.90;;;;;;4997274;28;20427;-72
2023/12/18 12:11:36;;;;;;;12.80;9.00;;;6.80;99.90;;;;;;5001663;28;20205;-74
2023/12/18 12:14:02;;;;;;;11.00;8.23;;;6.70;99.90;;;;;;4997935;28;20936;-75
2023/12/18 12:16:27;;;;;;;11.70;7.87;;;6.80;99.90;;;;;;5000880;28;20437;-73
2023/12/18 12:18:55;;;;;;;11.73;8.57;;;6.80;99.90;;;;;;4998497;28;20244;-74
2023/12/18 12:21:21;;;;;;;16.07;8.50;;;6.80;99.90;;;;;;4997019;28;20194;-74
2023/12/18 12:23:47;;;;;;;10.67;7.87;;;6.80;99.90;;;;;;4996728;28;20505;-75
2023/12/18 12:26:18;;;;;;;8.57;7.20;;;6.80;99.90;;;;;;4997074;28;20438;-72
2023/12/18 12:28:44;;;;;;;8.60;7.10;;;6.80;99.90;;;;;;5001702;28;20442;-73
2023/12/18 12:31:10;;;;;;;8.40;6.70;;;6.80;99.90;;;;;;4996572;28;20556;-74
2023/12/18 12:33:40;;;;;;;12.00;7.83;;;6.70;99.90;;;;;;5079252;28;20201;-75
2023/12/18 12:36:07;;;;;;;10.20;7.43;;;6.80;99.90;;;;;;4982627;28;20494;-71
2023/12/18 12:38:39;;;;;;;9.63;7.80;;;6.70;99.90;;;;;;5000772;28;20454;-73
2023/12/18 12:41:05;;;;;;;9.17;7.17;;;6.80;99.90;;;;;;5007097;28;20540;-73
2023/12/18 12:43:31;;;;;;;9.83;6.83;;;6.80;99.90;;;;;;5012577;28;20478;-73